Airport View

Enter AWOS ICAO identifier for current METAR.

ex. KFNL

KIZG 041354Z AUTO VRB03KT 10SM FEW018 22/16 A2994 RMK AO2 SLP138 T02170161 $

4 Jul 2020 14:55

Frequency: 135.775

Phone: 207-935-2882

Other Area AWOS: KMWN - KLEW - KLCI - KHIE

TAF KHIE 041120Z 0412/0512 00000KT P6SM OVC007 FM041205 32004KT P6SM FEW250